createdAt,value
2018-07-31T00:00:00.756Z,7.80
2018-07-31T00:01:00.937Z,7.60
2018-07-31T00:02:00.917Z,7.70
2018-07-31T00:03:00.897Z,8.00
2018-07-31T00:04:00.674Z,7.50
2018-07-31T00:05:00.654Z,7.20
2018-07-31T00:06:00.636Z,7.10
2018-07-31T00:07:00.613Z,7.10
2018-07-31T00:08:00.597Z,7.40
2018-07-31T00:09:00.574Z,8.00
2018-07-31T00:10:00.554Z,7.30
2018-07-31T00:11:00.535Z,7.50
2018-07-31T00:12:00.517Z,7.70
2018-07-31T00:13:00.495Z,7.70
2018-07-31T00:14:00.479Z,8.10
2018-07-31T00:15:00.454Z,7.50
2018-07-31T00:16:00.435Z,7.60
2018-07-31T00:17:00.416Z,7.80
2018-07-31T00:18:00.417Z,7.60
2018-07-31T00:19:00.375Z,8.00
2018-07-31T00:20:00.354Z,7.50
2018-07-31T00:21:00.334Z,7.30
2018-07-31T00:22:00.314Z,8.00
2018-07-31T00:23:00.297Z,7.30
2018-07-31T00:24:00.274Z,7.90
2018-07-31T00:25:00.254Z,7.50
2018-07-31T00:26:00.234Z,7.40
2018-07-31T00:27:00.214Z,7.10
2018-07-31T00:28:00.195Z,7.70
2018-07-31T00:29:00.173Z,7.50
2018-07-31T00:30:00.154Z,7.40
2018-07-31T00:31:00.134Z,7.50
2018-07-31T00:32:00.114Z,7.30
2018-07-31T00:33:00.094Z,7.40
2018-07-31T00:34:00.073Z,7.40
2018-07-31T00:35:00.055Z,7.80
2018-07-31T00:36:00.034Z,7.10
2018-07-31T00:37:00.014Z,6.50
2018-07-31T00:37:59.993Z,7.30
2018-07-31T00:38:59.972Z,7.70
2018-07-31T00:39:59.954Z,8.00
2018-07-31T00:40:59.936Z,7.70
2018-07-31T00:41:59.913Z,7.70
2018-07-31T00:42:59.893Z,7.10
2018-07-31T00:43:59.873Z,6.60
2018-07-31T00:44:59.853Z,7.20
2018-07-31T00:45:59.833Z,7.10
2018-07-31T00:46:59.815Z,7.60
2018-07-31T00:47:59.795Z,7.50
2018-07-31T00:48:59.770Z,7.20
2018-07-31T00:49:59.752Z,7.60
2018-07-31T00:50:59.737Z,7.20
2018-07-31T00:51:59.716Z,7.30
2018-07-31T00:52:59.695Z,7.20
2018-07-31T00:53:59.672Z,7.10
2018-07-31T00:54:59.652Z,7.50
2018-07-31T00:55:59.630Z,7.10
2018-07-31T00:56:59.615Z,6.60
2018-07-31T00:57:59.595Z,6.40
2018-07-31T00:58:59.571Z,6.90
2018-07-31T00:59:59.551Z,6.70
2018-07-31T01:00:59.530Z,6.30
2018-07-31T01:01:59.510Z,6.90
2018-07-31T01:02:59.491Z,7.20
2018-07-31T01:03:59.470Z,6.50
2018-07-31T01:04:59.449Z,6.60
2018-07-31T01:05:59.429Z,6.80
2018-07-31T01:06:59.410Z,6.80
2018-07-31T01:07:59.389Z,6.70
2018-07-31T01:08:59.368Z,6.90
2018-07-31T01:09:59.348Z,6.70
2018-07-31T01:10:59.367Z,6.70
2018-07-31T01:11:59.309Z,6.80
2018-07-31T01:12:59.292Z,6.60
2018-07-31T01:13:59.279Z,6.50
2018-07-31T01:14:59.248Z,6.70
2018-07-31T01:15:59.232Z,6.60
2018-07-31T01:16:59.207Z,6.70
2018-07-31T01:17:59.187Z,6.50
2018-07-31T01:18:59.167Z,6.60
2018-07-31T01:19:59.146Z,7.00
2018-07-31T01:20:59.125Z,6.30
2018-07-31T01:21:59.106Z,6.00
2018-07-31T01:22:59.086Z,6.30
2018-07-31T01:23:59.068Z,6.40
2018-07-31T01:24:59.044Z,6.30
2018-07-31T01:25:59.025Z,6.60
2018-07-31T01:26:59.005Z,6.50
2018-07-31T01:27:58.984Z,6.90
2018-07-31T01:28:58.963Z,6.80
2018-07-31T01:29:58.946Z,6.30
2018-07-31T01:30:58.924Z,6.20
2018-07-31T01:31:58.904Z,6.50
2018-07-31T01:32:58.883Z,6.30
2018-07-31T01:33:58.862Z,6.60
2018-07-31T01:34:58.843Z,5.60
2018-07-31T01:35:58.825Z,6.30
2018-07-31T01:36:58.806Z,6.40
2018-07-31T01:37:58.785Z,6.20
2018-07-31T01:38:58.762Z,6.70
2018-07-31T01:39:58.746Z,6.10
2018-07-31T01:40:58.724Z,6.50
2018-07-31T01:41:58.700Z,6.50
2018-07-31T01:42:58.693Z,6.20
2018-07-31T01:43:58.659Z,6.20
2018-07-31T01:44:58.640Z,6.00
2018-07-31T01:45:58.630Z,6.60
2018-07-31T01:46:58.601Z,6.00
2018-07-31T01:47:58.580Z,6.80
2018-07-31T01:48:58.559Z,6.40
2018-07-31T01:49:58.540Z,6.20
2018-07-31T01:50:58.524Z,6.50
2018-07-31T01:51:58.499Z,6.20
2018-07-31T01:52:58.480Z,6.00
2018-07-31T01:53:58.462Z,6.10
2018-07-31T01:54:58.438Z,6.20
2018-07-31T01:55:58.419Z,6.40
2018-07-31T01:56:58.394Z,6.70
2018-07-31T01:57:58.526Z,6.30
2018-07-31T01:58:58.356Z,6.00
2018-07-31T01:59:58.336Z,6.30
2018-07-31T02:00:58.314Z,6.20
2018-07-31T02:01:58.297Z,6.10
2018-07-31T02:02:58.280Z,6.40
2018-07-31T02:03:58.257Z,6.40
2018-07-31T02:04:58.232Z,6.80
2018-07-31T02:05:58.213Z,5.90
2018-07-31T02:06:58.194Z,5.60
2018-07-31T02:07:58.177Z,5.90
2018-07-31T02:08:58.152Z,6.20
2018-07-31T02:09:58.131Z,5.80
2018-07-31T02:10:58.114Z,6.50
2018-07-31T02:11:58.093Z,6.10
2018-07-31T02:12:58.070Z,6.60
2018-07-31T02:13:58.051Z,6.20
2018-07-31T02:14:58.031Z,7.00
2018-07-31T02:15:58.010Z,6.80
2018-07-31T02:16:57.989Z,6.20
2018-07-31T02:17:57.968Z,8.50
2018-07-31T02:18:57.951Z,6.70
2018-07-31T02:19:58.129Z,7.80
2018-07-31T02:20:57.907Z,7.20
2018-07-31T02:21:57.887Z,7.70
2018-07-31T02:22:57.868Z,6.80
2018-07-31T02:23:57.863Z,6.00
2018-07-31T02:24:57.825Z,6.50
2018-07-31T02:25:57.803Z,6.40
2018-07-31T02:26:57.987Z,6.40
2018-07-31T02:27:57.982Z,6.60
2018-07-31T02:28:57.743Z,5.80
2018-07-31T02:29:57.723Z,6.40
2018-07-31T02:30:57.702Z,6.40
2018-07-31T02:31:57.682Z,6.00
2018-07-31T02:32:57.661Z,6.00
2018-07-31T02:33:57.647Z,5.40
2018-07-31T02:34:57.621Z,6.30
2018-07-31T02:35:57.605Z,5.70
2018-07-31T02:36:57.578Z,5.60
2018-07-31T02:37:57.559Z,5.90
2018-07-31T02:38:57.539Z,5.90
2018-07-31T02:39:57.518Z,6.30
2018-07-31T02:40:57.498Z,6.30
2018-07-31T02:41:57.682Z,6.30
2018-07-31T02:42:57.456Z,5.80
2018-07-31T02:43:57.436Z,6.10
2018-07-31T02:44:57.414Z,6.20
2018-07-31T02:45:57.394Z,6.40
2018-07-31T02:46:57.592Z,6.50
2018-07-31T02:47:57.556Z,6.20
2018-07-31T02:48:57.333Z,6.30
2018-07-31T02:49:57.311Z,5.80
2018-07-31T02:50:57.292Z,6.20
2018-07-31T02:51:57.475Z,6.10
2018-07-31T02:52:57.317Z,6.00
2018-07-31T02:53:57.230Z,5.50
2018-07-31T02:54:57.209Z,6.10
2018-07-31T02:55:57.189Z,6.30
2018-07-31T02:56:57.167Z,6.30
2018-07-31T02:57:57.155Z,5.30
2018-07-31T02:58:57.127Z,6.00
2018-07-31T02:59:57.109Z,6.00
2018-07-31T03:00:57.288Z,5.70
2018-07-31T03:01:57.071Z,6.10
2018-07-31T03:02:57.050Z,6.10
2018-07-31T03:03:57.025Z,5.80
2018-07-31T03:04:57.003Z,6.00
2018-07-31T03:05:56.986Z,5.90
2018-07-31T03:06:56.968Z,6.00
2018-07-31T03:07:57.150Z,5.90
2018-07-31T03:08:56.924Z,5.80
2018-07-31T03:09:56.901Z,5.70
2018-07-31T03:10:57.084Z,6.20
2018-07-31T03:11:56.860Z,6.00
2018-07-31T03:12:57.040Z,5.90
2018-07-31T03:13:56.819Z,5.60
2018-07-31T03:14:56.840Z,6.10
2018-07-31T03:15:56.777Z,6.20
2018-07-31T03:16:56.755Z,6.10
2018-07-31T03:17:56.734Z,6.10
2018-07-31T03:18:56.716Z,6.20
2018-07-31T03:19:56.693Z,5.00
2018-07-31T03:20:56.874Z,6.20
2018-07-31T03:21:56.655Z,6.00
2018-07-31T03:22:56.836Z,5.70
2018-07-31T03:23:56.615Z,6.30
2018-07-31T03:24:56.591Z,6.40
2018-07-31T03:25:56.571Z,5.80
2018-07-31T03:26:56.553Z,6.00
2018-07-31T03:27:56.729Z,5.70
2018-07-31T03:28:56.525Z,6.30
2018-07-31T03:29:56.486Z,6.30
2018-07-31T03:30:56.467Z,5.80
2018-07-31T03:31:56.451Z,6.10
2018-07-31T03:32:56.423Z,6.90
2018-07-31T03:33:56.406Z,5.60
2018-07-31T03:34:56.383Z,5.70
2018-07-31T03:35:56.361Z,6.20
2018-07-31T03:36:56.340Z,5.80
2018-07-31T03:37:56.324Z,6.30
2018-07-31T03:38:56.298Z,5.90
2018-07-31T03:39:56.279Z,6.30
2018-07-31T03:40:56.262Z,5.90
2018-07-31T03:41:56.237Z,6.10
2018-07-31T03:42:56.216Z,6.10
2018-07-31T03:43:56.195Z,6.10
2018-07-31T03:44:56.175Z,6.20
2018-07-31T03:45:56.154Z,6.30
2018-07-31T03:46:56.133Z,6.00
2018-07-31T03:47:56.115Z,6.20
2018-07-31T03:48:56.092Z,6.00
2018-07-31T03:49:56.102Z,6.30
2018-07-31T03:50:56.051Z,5.80
2018-07-31T03:51:56.030Z,6.30
2018-07-31T03:52:56.010Z,5.90
2018-07-31T03:53:55.992Z,6.40
2018-07-31T03:54:55.968Z,6.30
2018-07-31T03:55:55.949Z,5.90
2018-07-31T03:56:55.926Z,6.30
2018-07-31T03:57:55.904Z,6.10
2018-07-31T03:58:55.885Z,5.90
2018-07-31T03:59:55.863Z,6.40
2018-07-31T04:00:55.844Z,6.30
2018-07-31T04:01:55.833Z,6.30
2018-07-31T04:02:55.801Z,6.20
2018-07-31T04:03:55.782Z,6.20
2018-07-31T04:04:55.762Z,6.00
2018-07-31T04:05:55.740Z,6.40
2018-07-31T04:06:55.869Z,6.00
2018-07-31T04:07:55.698Z,6.40
2018-07-31T04:08:55.676Z,6.40
2018-07-31T04:09:55.657Z,6.50
2018-07-31T04:10:55.638Z,6.50
2018-07-31T04:11:55.616Z,6.40
2018-07-31T04:12:55.598Z,6.60
2018-07-31T04:13:55.575Z,6.20
2018-07-31T04:14:55.555Z,6.40
2018-07-31T04:15:55.535Z,6.20
2018-07-31T04:16:55.567Z,6.20
2018-07-31T04:17:55.492Z,6.40
2018-07-31T04:18:55.476Z,6.40
2018-07-31T04:19:55.456Z,6.00
2018-07-31T04:20:55.433Z,6.20
2018-07-31T04:21:55.411Z,6.50
2018-07-31T04:22:55.393Z,6.20
2018-07-31T04:23:55.372Z,5.80
2018-07-31T04:24:55.350Z,6.10
2018-07-31T04:25:55.329Z,6.10
2018-07-31T04:26:55.309Z,6.70
2018-07-31T04:27:55.290Z,5.90
2018-07-31T04:28:55.270Z,6.60
2018-07-31T04:29:55.249Z,6.40
2018-07-31T04:30:55.230Z,6.20
2018-07-31T04:31:55.208Z,6.30
2018-07-31T04:32:55.201Z,6.50
2018-07-31T04:33:55.205Z,5.80
2018-07-31T04:34:55.158Z,6.50
2018-07-31T04:35:55.189Z,6.50
2018-07-31T04:36:55.108Z,6.70
2018-07-31T04:37:55.098Z,6.60
2018-07-31T04:38:55.079Z,6.60
2018-07-31T04:39:55.048Z,6.30
2018-07-31T04:40:55.029Z,7.60
2018-07-31T04:41:55.009Z,7.30
2018-07-31T04:42:54.989Z,6.70
2018-07-31T04:43:54.969Z,6.70
2018-07-31T04:44:54.951Z,6.90
2018-07-31T04:45:54.932Z,6.50
2018-07-31T04:46:54.910Z,6.70
2018-07-31T04:47:54.889Z,6.80
2018-07-31T04:48:54.870Z,7.40
2018-07-31T04:49:55.053Z,9.90
2018-07-31T04:50:54.831Z,10.00
2018-07-31T04:51:54.812Z,10.20
2018-07-31T04:52:54.792Z,9.00
2018-07-31T04:53:54.771Z,9.00
2018-07-31T04:54:54.957Z,8.00
2018-07-31T04:55:54.733Z,9.10
2018-07-31T04:56:54.714Z,8.50
2018-07-31T04:57:54.897Z,7.90
2018-07-31T04:58:54.675Z,7.70
2018-07-31T04:59:54.656Z,8.00
2018-07-31T05:00:54.637Z,8.00
2018-07-31T05:01:54.617Z,7.70
2018-07-31T05:02:54.604Z,7.00
2018-07-31T05:03:54.583Z,7.20
2018-07-31T05:04:54.560Z,7.80
2018-07-31T05:05:54.540Z,6.70
2018-07-31T05:06:54.532Z,7.00
2018-07-31T05:07:58.540Z,7.60
2018-07-31T05:08:54.492Z,7.60
2018-07-31T05:09:54.668Z,6.80
2018-07-31T05:10:54.649Z,6.80
2018-07-31T05:11:54.632Z,7.00
2018-07-31T05:12:54.613Z,6.70
2018-07-31T05:13:54.592Z,7.30
2018-07-31T05:14:54.373Z,8.40
2018-07-31T05:15:54.353Z,6.80
2018-07-31T05:16:54.332Z,7.00
2018-07-31T05:17:54.315Z,7.40
2018-07-31T05:18:54.499Z,7.00
2018-07-31T05:19:54.279Z,6.70
2018-07-31T05:20:54.461Z,7.10
2018-07-31T05:21:54.239Z,8.10
2018-07-31T05:22:54.425Z,6.60
2018-07-31T05:23:54.205Z,7.40
2018-07-31T05:24:54.188Z,8.70
2018-07-31T05:25:54.170Z,7.90
2018-07-31T05:26:54.148Z,7.20
2018-07-31T05:27:54.130Z,6.80
2018-07-31T05:28:54.113Z,7.20
2018-07-31T05:29:54.092Z,7.40
2018-07-31T05:30:54.076Z,8.70
2018-07-31T05:31:54.056Z,7.60
2018-07-31T05:32:54.164Z,7.60
2018-07-31T05:33:54.022Z,7.50
2018-07-31T05:34:54.008Z,7.30
2018-07-31T05:35:53.982Z,7.00
2018-07-31T05:36:53.962Z,6.90
2018-07-31T05:37:53.944Z,6.80
2018-07-31T05:38:53.928Z,7.90
2018-07-31T05:39:53.908Z,9.40
2018-07-31T05:40:53.887Z,8.50
2018-07-31T05:41:53.870Z,8.00
2018-07-31T05:42:53.851Z,7.50
2018-07-31T05:43:53.834Z,7.50
2018-07-31T05:44:53.814Z,7.00
2018-07-31T05:45:53.800Z,8.20
2018-07-31T05:46:53.778Z,7.70
2018-07-31T05:47:53.760Z,8.20
2018-07-31T05:48:53.741Z,13.50
2018-07-31T05:49:53.723Z,12.40
2018-07-31T05:50:53.706Z,13.90
2018-07-31T05:51:53.750Z,11.30
2018-07-31T05:52:53.671Z,12.60
2018-07-31T05:53:53.650Z,11.90
2018-07-31T05:54:53.632Z,10.00
2018-07-31T05:55:53.616Z,9.50
2018-07-31T05:56:53.799Z,8.00
2018-07-31T05:57:53.579Z,8.20
2018-07-31T05:58:53.764Z,7.80
2018-07-31T05:59:53.544Z,8.10
2018-07-31T06:00:53.529Z,7.60
2018-07-31T06:01:53.508Z,8.50
2018-07-31T06:02:53.493Z,7.30
2018-07-31T06:03:53.473Z,8.20
2018-07-31T06:04:53.459Z,8.30
2018-07-31T06:05:53.440Z,7.90
2018-07-31T06:06:53.423Z,7.40
2018-07-31T06:07:53.406Z,7.10
2018-07-31T06:08:53.398Z,7.10
2018-07-31T06:09:53.372Z,7.30
2018-07-31T06:10:53.354Z,7.90
2018-07-31T06:11:53.344Z,9.40
2018-07-31T06:12:53.321Z,14.70
2018-07-31T06:13:53.506Z,8.60
2018-07-31T06:14:53.288Z,8.20
2018-07-31T06:15:53.271Z,7.20
2018-07-31T06:16:53.254Z,7.30
2018-07-31T06:17:53.242Z,7.10
2018-07-31T06:18:53.221Z,7.30
2018-07-31T06:19:53.206Z,7.50
2018-07-31T06:20:53.189Z,7.90
2018-07-31T06:21:53.171Z,7.40
2018-07-31T06:22:53.155Z,8.40
2018-07-31T06:23:53.138Z,7.80
2018-07-31T06:24:53.121Z,7.90
2018-07-31T06:25:53.111Z,7.60
2018-07-31T06:26:53.093Z,7.40
2018-07-31T06:27:53.073Z,7.50
2018-07-31T06:28:53.056Z,8.20
2018-07-31T06:29:53.039Z,8.20
2018-07-31T06:30:53.024Z,8.00
2018-07-31T06:31:53.007Z,7.80
2018-07-31T06:32:53.030Z,7.80
2018-07-31T06:33:52.974Z,7.30
2018-07-31T06:34:52.957Z,7.80
2018-07-31T06:35:52.941Z,7.50
2018-07-31T06:36:52.924Z,7.80
2018-07-31T06:37:52.908Z,7.60
2018-07-31T06:38:52.892Z,7.70
2018-07-31T06:39:52.881Z,7.30
2018-07-31T06:40:52.860Z,7.50
2018-07-31T06:41:52.845Z,8.20
2018-07-31T06:42:53.031Z,8.90
2018-07-31T06:43:52.813Z,8.40
2018-07-31T06:44:52.798Z,8.30
2018-07-31T06:45:52.781Z,7.70
2018-07-31T06:46:52.765Z,7.90
2018-07-31T06:47:52.749Z,7.30
2018-07-31T06:48:52.734Z,7.40
2018-07-31T06:49:52.920Z,7.40
2018-07-31T06:50:52.905Z,7.90
2018-07-31T06:51:52.689Z,8.00
2018-07-31T06:52:52.875Z,7.30
2018-07-31T06:53:52.863Z,7.40
2018-07-31T06:54:52.847Z,6.70
2018-07-31T06:55:52.628Z,7.50
2018-07-31T06:56:52.613Z,7.10
2018-07-31T06:57:52.599Z,7.50
2018-07-31T06:58:52.584Z,7.10
2018-07-31T06:59:52.569Z,6.60
2018-07-31T07:00:52.552Z,6.90
2018-07-31T07:01:52.536Z,7.30
2018-07-31T07:02:52.532Z,7.00
2018-07-31T07:03:52.507Z,7.50
2018-07-31T07:04:52.488Z,6.90
2018-07-31T07:05:52.475Z,7.20
2018-07-31T07:06:52.458Z,7.30
2018-07-31T07:07:52.441Z,6.90
2018-07-31T07:08:52.425Z,7.60
2018-07-31T07:09:52.407Z,7.20
2018-07-31T07:10:52.595Z,7.00
2018-07-31T07:11:52.377Z,6.80
2018-07-31T07:12:52.359Z,6.90
2018-07-31T07:13:52.346Z,7.20
2018-07-31T07:14:52.478Z,7.00
2018-07-31T07:15:52.312Z,6.90
2018-07-31T07:16:52.294Z,7.60
2018-07-31T07:17:52.279Z,6.20
2018-07-31T07:18:52.262Z,7.30
2018-07-31T07:19:52.248Z,6.90
2018-07-31T07:20:52.231Z,6.90
2018-07-31T07:21:52.215Z,7.30
2018-07-31T07:22:52.200Z,6.60
2018-07-31T07:23:52.185Z,6.90
2018-07-31T07:24:52.167Z,7.40
2018-07-31T07:25:52.154Z,6.90
2018-07-31T07:26:52.135Z,7.20
2018-07-31T07:27:52.123Z,7.00
2018-07-31T07:28:52.104Z,6.80
2018-07-31T07:29:52.103Z,6.90
2018-07-31T07:30:52.077Z,6.50
2018-07-31T07:31:52.063Z,6.90
2018-07-31T07:32:52.040Z,6.90
2018-07-31T07:33:52.102Z,6.60
2018-07-31T07:34:52.011Z,7.30
2018-07-31T07:35:51.996Z,6.70
2018-07-31T07:36:51.979Z,7.00
2018-07-31T07:37:51.964Z,6.90
2018-07-31T07:38:51.949Z,7.20
2018-07-31T07:39:51.934Z,6.30
2018-07-31T07:40:51.922Z,7.20
2018-07-31T07:41:51.941Z,7.00
2018-07-31T07:42:51.888Z,6.90
2018-07-31T07:43:51.877Z,6.80
2018-07-31T07:44:51.861Z,6.80
2018-07-31T07:45:51.844Z,7.10
2018-07-31T07:46:51.827Z,7.40
2018-07-31T07:47:52.826Z,7.40
2018-07-31T07:48:52.021Z,7.80
2018-07-31T07:49:51.984Z,6.90
2018-07-31T07:50:51.974Z,7.00
2018-07-31T07:51:51.999Z,7.20
2018-07-31T07:52:51.738Z,7.10
2018-07-31T07:53:54.638Z,6.90
2018-07-31T07:54:51.913Z,6.70
2018-07-31T08:00:07.691Z,6.10
2018-07-31T08:01:47.011Z,6.70
2018-07-31T08:04:56.109Z,6.60
2018-07-31T08:05:56.494Z,6.20
2018-07-31T08:06:53.457Z,6.00
2018-07-31T08:07:53.445Z,6.00
2018-07-31T08:10:17.758Z,6.70
2018-07-31T08:11:17.748Z,6.40
2018-07-31T08:12:17.739Z,6.20
2018-07-31T08:13:17.523Z,6.70
2018-07-31T08:14:17.512Z,6.30
2018-07-31T08:15:17.520Z,6.20
2018-07-31T08:16:17.693Z,5.90
2018-07-31T08:17:17.480Z,6.40
2018-07-31T08:18:17.471Z,6.10
2018-07-31T08:19:17.458Z,5.90
2018-07-31T08:20:17.690Z,6.00
2018-07-31T08:21:17.437Z,6.00
2018-07-31T08:22:17.631Z,6.10
2018-07-31T08:23:17.423Z,6.70
2018-07-31T08:24:17.404Z,6.60
2018-07-31T08:25:17.401Z,6.90
2018-07-31T08:26:17.586Z,7.10
2018-07-31T08:27:17.371Z,7.30
2018-07-31T08:28:17.358Z,6.90
2018-07-31T08:29:17.555Z,7.00
2018-07-31T08:30:17.334Z,6.40
2018-07-31T08:31:17.330Z,6.50
2018-07-31T08:32:17.514Z,7.00
2018-07-31T08:33:17.502Z,6.50
2018-07-31T08:34:17.504Z,6.90
2018-07-31T08:35:17.273Z,6.40
2018-07-31T08:36:17.261Z,7.10
2018-07-31T08:37:17.459Z,6.80
2018-07-31T08:38:17.237Z,7.20
2018-07-31T08:39:17.225Z,6.70
2018-07-31T08:40:17.214Z,6.70
2018-07-31T08:41:17.218Z,7.00
2018-07-31T08:42:17.189Z,7.10
2018-07-31T08:43:17.175Z,6.70
2018-07-31T08:44:17.363Z,6.80
2018-07-31T08:45:17.153Z,7.00
2018-07-31T08:46:18.146Z,7.10
2018-07-31T08:47:17.122Z,6.90
2018-07-31T08:48:17.112Z,7.30
2018-07-31T08:49:17.106Z,7.50
2018-07-31T08:50:17.286Z,7.80
2018-07-31T08:51:17.361Z,7.50
2018-07-31T08:52:17.061Z,8.70
2018-07-31T08:53:17.045Z,8.30
2018-07-31T08:54:17.033Z,7.40
2018-07-31T08:55:17.222Z,7.30
2018-07-31T08:56:17.004Z,7.00
2018-07-31T08:57:16.993Z,7.30
2018-07-31T08:58:16.978Z,7.30
2018-07-31T08:59:16.967Z,7.30
2018-07-31T09:00:17.157Z,7.10
2018-07-31T09:01:17.140Z,7.00
2018-07-31T09:02:17.139Z,7.00
2018-07-31T09:03:16.918Z,6.60
2018-07-31T09:04:17.101Z,7.30
2018-07-31T09:05:17.091Z,7.00
2018-07-31T09:06:16.876Z,6.80
2018-07-31T09:07:16.863Z,7.40
2018-07-31T09:08:17.061Z,7.70
2018-07-31T09:09:16.842Z,8.10
2018-07-31T09:10:16.830Z,7.60
2018-07-31T09:11:17.017Z,7.30
2018-07-31T09:12:16.804Z,7.20
2018-07-31T09:13:16.794Z,7.20
2018-07-31T09:14:16.985Z,7.20
2018-07-31T09:15:16.981Z,7.80
2018-07-31T09:16:16.761Z,7.90
2018-07-31T09:17:16.747Z,7.80
2018-07-31T09:18:16.938Z,7.50
2018-07-31T09:19:16.930Z,7.40
2018-07-31T09:20:16.915Z,7.30
2018-07-31T09:21:16.906Z,7.20
2018-07-31T09:22:16.915Z,7.10
2018-07-31T09:23:16.881Z,7.70
2018-07-31T09:24:16.919Z,7.40
2018-07-31T09:25:16.863Z,7.70
2018-07-31T09:26:16.849Z,9.30
2018-07-31T09:27:16.844Z,8.90
2018-07-31T09:28:16.826Z,8.60
2018-07-31T09:29:16.816Z,8.40
2018-07-31T09:30:16.657Z,8.80
2018-07-31T09:31:16.796Z,9.70
2018-07-31T09:32:16.783Z,9.20
2018-07-31T09:33:16.775Z,8.30
2018-07-31T09:34:19.386Z,7.90
2018-07-31T09:35:16.751Z,7.70
2018-07-31T09:36:16.741Z,7.10
2018-07-31T09:37:19.353Z,6.80
2018-07-31T09:38:16.520Z,6.60
2018-07-31T09:39:16.508Z,8.50
2018-07-31T09:40:16.501Z,8.00
2018-07-31T09:41:16.491Z,7.40
2018-07-31T09:42:16.686Z,7.60
2018-07-31T09:43:16.477Z,6.90
2018-07-31T09:44:16.458Z,7.40
2018-07-31T09:45:58.815Z,7.70
2018-07-31T09:46:58.605Z,7.10
2018-07-31T09:47:58.793Z,7.60
2018-07-31T09:48:58.582Z,7.50
2018-07-31T09:49:58.573Z,7.70
2018-07-31T09:50:58.560Z,7.30
2018-07-31T09:51:58.548Z,7.00
2018-07-31T09:52:58.743Z,7.20
2018-07-31T09:53:58.531Z,7.80
2018-07-31T09:54:58.516Z,7.60
2018-07-31T09:55:58.508Z,7.90
2018-07-31T09:56:58.495Z,7.90
2018-07-31T09:58:01.308Z,8.00
2018-07-31T09:58:58.473Z,8.20
2018-07-31T09:59:58.462Z,7.80
2018-07-31T10:00:58.453Z,7.50
2018-07-31T10:01:58.445Z,8.30
2018-07-31T10:02:58.430Z,8.30
2018-07-31T10:03:58.622Z,8.50
2018-07-31T10:04:58.625Z,7.40
2018-07-31T10:05:58.450Z,7.00
2018-07-31T10:06:58.389Z,7.30
2018-07-31T10:07:58.583Z,6.80
2018-07-31T10:08:58.373Z,6.90
2018-07-31T10:09:58.361Z,6.50
2018-07-31T10:10:58.351Z,6.30
2018-07-31T10:11:58.347Z,5.90
2018-07-31T10:12:58.334Z,6.10
2018-07-31T10:13:58.338Z,6.20
2018-07-31T10:14:58.313Z,6.00
2018-07-31T10:15:58.304Z,6.20
2018-07-31T10:16:58.300Z,6.60
2018-07-31T10:17:58.314Z,6.60
2018-07-31T10:18:58.275Z,7.00
2018-07-31T10:19:58.265Z,6.80
2018-07-31T10:20:58.258Z,6.80
2018-07-31T10:21:58.247Z,6.70
2018-07-31T10:22:58.235Z,6.40
2018-07-31T10:23:58.225Z,6.20
2018-07-31T10:24:58.219Z,7.00
2018-07-31T10:25:58.213Z,7.10
2018-07-31T10:26:58.194Z,7.20
2018-07-31T10:27:58.185Z,6.70
2018-07-31T10:28:58.176Z,7.10
2018-07-31T10:29:58.166Z,6.90
2018-07-31T10:30:58.242Z,6.40
2018-07-31T10:31:58.144Z,7.00
2018-07-31T10:32:58.137Z,6.20
2018-07-31T10:33:58.136Z,6.40
2018-07-31T10:34:58.118Z,6.60
2018-07-31T10:35:58.103Z,6.30
2018-07-31T10:36:58.094Z,5.90
2018-07-31T10:37:58.086Z,6.00
2018-07-31T10:38:58.072Z,6.60
2018-07-31T10:39:58.064Z,6.10
2018-07-31T10:40:58.053Z,5.90
2018-07-31T10:41:58.045Z,6.10
2018-07-31T10:42:58.036Z,6.20
2018-07-31T10:43:58.099Z,5.70
2018-07-31T10:44:58.018Z,6.40
2018-07-31T10:45:58.006Z,7.00
2018-07-31T10:46:57.999Z,6.40
2018-07-31T10:47:57.987Z,6.30
2018-07-31T10:48:57.997Z,6.00
2018-07-31T10:49:57.968Z,6.30
2018-07-31T10:50:57.993Z,5.90
2018-07-31T10:51:57.948Z,6.00
2018-07-31T10:52:57.938Z,6.30
2018-07-31T10:53:57.932Z,6.60
2018-07-31T10:54:57.956Z,9.90
2018-07-31T10:55:57.909Z,7.30
2018-07-31T10:56:57.900Z,6.40
2018-07-31T10:57:57.926Z,6.00
2018-07-31T10:58:57.878Z,6.00
2018-07-31T10:59:57.888Z,6.50
2018-07-31T11:00:57.860Z,6.40
2018-07-31T11:01:57.850Z,6.20
2018-07-31T11:02:57.841Z,6.20
2018-07-31T11:03:57.879Z,6.40
2018-07-31T11:04:57.820Z,6.30
2018-07-31T11:05:57.809Z,6.40
2018-07-31T11:06:57.800Z,6.70
2018-07-31T11:07:57.789Z,6.50
2018-07-31T11:08:57.780Z,6.00
2018-07-31T11:09:57.768Z,6.20
2018-07-31T11:10:57.763Z,6.40
2018-07-31T11:11:57.748Z,6.20
2018-07-31T11:12:57.737Z,6.20
2018-07-31T11:13:57.726Z,6.10
2018-07-31T11:14:57.721Z,6.00
2018-07-31T11:15:57.706Z,6.50
2018-07-31T11:16:57.695Z,6.20
2018-07-31T11:17:57.685Z,6.10
2018-07-31T11:18:57.679Z,6.10
2018-07-31T11:19:57.667Z,6.40
2018-07-31T11:20:57.777Z,6.00
2018-07-31T11:21:57.842Z,6.20
2018-07-31T11:22:57.831Z,6.60
2018-07-31T11:23:57.620Z,6.40
2018-07-31T11:24:57.608Z,5.90
2018-07-31T11:25:57.599Z,6.40
2018-07-31T11:26:57.584Z,6.10
2018-07-31T11:27:57.572Z,6.70
2018-07-31T11:28:57.768Z,6.20
2018-07-31T11:29:57.553Z,6.30
2018-07-31T11:30:57.541Z,6.60
2018-07-31T11:31:57.526Z,6.70
2018-07-31T11:32:57.522Z,7.40
2018-07-31T11:33:57.503Z,6.60
2018-07-31T11:34:57.693Z,6.20
2018-07-31T11:35:57.479Z,6.30
2018-07-31T11:36:57.469Z,6.20
2018-07-31T11:37:57.454Z,6.20
2018-07-31T11:38:57.443Z,6.10
2018-07-31T11:39:57.637Z,6.30
2018-07-31T11:40:57.421Z,6.90
2018-07-31T11:41:57.412Z,6.90
2018-07-31T11:42:57.396Z,6.20
2018-07-31T11:43:57.390Z,6.60
2018-07-31T11:44:57.579Z,6.60
2018-07-31T11:45:57.360Z,6.80
2018-07-31T11:46:57.349Z,7.00
2018-07-31T11:47:57.337Z,6.80
2018-07-31T11:48:57.526Z,6.30
2018-07-31T11:49:57.572Z,6.40
2018-07-31T11:50:57.304Z,6.60
2018-07-31T11:51:57.292Z,6.70
2018-07-31T11:52:57.282Z,5.80
2018-07-31T11:53:57.274Z,7.00
2018-07-31T11:54:57.256Z,6.70
2018-07-31T11:55:57.246Z,6.60
2018-07-31T11:56:57.437Z,6.50
2018-07-31T11:57:57.223Z,6.50
2018-07-31T11:58:57.214Z,6.10
2018-07-31T11:59:57.403Z,6.30
2018-07-31T12:00:57.189Z,6.30
2018-07-31T12:01:57.181Z,6.00
2018-07-31T12:02:57.196Z,5.50
2018-07-31T12:03:57.159Z,5.90
2018-07-31T12:04:57.147Z,5.70
2018-07-31T12:05:57.133Z,5.30
2018-07-31T12:06:57.327Z,5.70
2018-07-31T12:07:57.310Z,5.50
2018-07-31T12:08:57.096Z,5.50
2018-07-31T12:09:57.184Z,5.20
2018-07-31T12:10:57.073Z,5.60
2018-07-31T12:11:57.269Z,5.60
2018-07-31T12:12:57.048Z,5.80
2018-07-31T12:13:57.060Z,5.70
2018-07-31T12:14:57.037Z,4.80
2018-07-31T12:15:57.088Z,4.00
2018-07-31T12:16:57.000Z,5.00
2018-07-31T12:17:57.191Z,5.40
2018-07-31T12:18:57.196Z,5.80
2018-07-31T12:19:57.169Z,5.60
2018-07-31T12:20:57.173Z,4.90
2018-07-31T12:21:57.142Z,5.00
2018-07-31T12:22:56.926Z,5.30
2018-07-31T12:23:56.914Z,4.90
2018-07-31T12:25:39.265Z,5.60
2018-07-31T12:26:39.048Z,5.20
2018-07-31T12:27:39.036Z,5.80
2018-07-31T12:28:39.226Z,5.50
2018-07-31T12:29:39.213Z,5.60
2018-07-31T12:30:38.997Z,6.20
2018-07-31T12:31:39.192Z,5.20
2018-07-31T12:32:39.175Z,5.30
2018-07-31T12:33:38.961Z,5.50
2018-07-31T12:34:38.946Z,5.30
2018-07-31T12:35:38.937Z,5.90
2018-07-31T12:36:38.921Z,5.70
2018-07-31T12:37:39.108Z,6.20
2018-07-31T12:38:39.104Z,5.70
2018-07-31T12:39:39.085Z,5.90
2018-07-31T12:40:39.076Z,6.30
2018-07-31T12:41:38.860Z,6.00
2018-07-31T12:42:38.841Z,5.90
2018-07-31T12:43:38.831Z,6.60
2018-07-31T12:44:38.817Z,5.60
2018-07-31T12:45:38.811Z,6.20
2018-07-31T12:46:38.793Z,5.70
2018-07-31T12:47:38.979Z,6.20
2018-07-31T12:48:39.019Z,5.60
2018-07-31T12:50:21.117Z,5.20
2018-07-31T12:51:20.912Z,5.30
2018-07-31T12:52:21.101Z,6.60
2018-07-31T12:53:20.878Z,5.80
2018-07-31T12:54:21.075Z,5.40
2018-07-31T12:55:21.458Z,5.40
2018-07-31T12:56:20.844Z,5.50
2018-07-31T12:57:20.832Z,6.00
2018-07-31T12:58:20.817Z,6.00
2018-07-31T12:59:20.807Z,5.60
2018-07-31T13:00:20.797Z,5.90
2018-07-31T13:01:20.785Z,5.20
2018-07-31T13:02:20.770Z,5.40
2018-07-31T13:03:20.962Z,5.70
2018-07-31T13:04:20.949Z,6.10
2018-07-31T13:05:20.739Z,5.70
2018-07-31T13:06:20.726Z,5.50
2018-07-31T13:07:20.713Z,6.10
2018-07-31T13:08:20.704Z,6.10
2018-07-31T13:09:20.699Z,5.70
2018-07-31T13:10:20.683Z,6.10
2018-07-31T13:11:20.670Z,5.70
2018-07-31T13:12:20.659Z,6.20
2018-07-31T13:13:20.883Z,5.90
2018-07-31T13:14:20.840Z,6.60
2018-07-31T13:15:20.645Z,5.90
2018-07-31T13:16:20.824Z,5.80
2018-07-31T13:17:20.607Z,5.40
2018-07-31T13:18:20.603Z,5.50
2018-07-31T13:19:20.586Z,5.70
2018-07-31T13:20:20.578Z,5.10
2018-07-31T13:21:20.768Z,5.40
2018-07-31T13:22:20.557Z,5.40
2018-07-31T13:23:21.156Z,5.40
2018-07-31T13:24:20.750Z,5.00
2018-07-31T13:25:20.729Z,5.60
2018-07-31T13:26:20.724Z,5.60
2018-07-31T13:27:20.708Z,5.70
2018-07-31T13:28:20.498Z,5.50